Time;durP1;ratioP1;P1;durP2;ratioP2;P2;SDS_P1;SDS_P2;PMS_P1;PMS_P2;Temp;Humidity;BMP_temperature;BMP_pressure;BME280_temperature;BME280_humidity;BME280_pressure;Samples;Min_cycle;Max_cycle;Signal;HPM_P1;HPM_P2
2022/01/29 00:02:20;;;;;;;10.60;2.37;;;;;;;-1.35;89.25;100667.22;4177798;28;20248;-72
2022/01/29 00:04:47;;;;;;;8.80;2.37;;;;;;;-1.33;90.17;100655.81;4174107;28;20229;-71
2022/01/29 00:07:13;;;;;;;14.87;2.60;;;;;;;-1.30;90.04;100665.28;4160313;28;20237;-71
2022/01/29 00:09:42;;;;;;;8.47;2.63;;;;;;;-1.32;89.99;100654.03;4178968;28;21026;-72
2022/01/29 00:12:10;;;;;;;9.70;2.20;;;;;;;-1.41;90.76;100663.09;4184508;28;20246;-73
2022/01/29 00:14:36;;;;;;;8.70;2.50;;;;;;;-1.49;91.78;100667.78;4182113;28;20447;-71
2022/01/29 00:17:03;;;;;;;6.57;2.30;;;;;;;-1.42;91.73;100681.44;4180849;28;20233;-71
2022/01/29 00:19:30;;;;;;;8.40;2.33;;;;;;;-1.49;91.90;100671.25;4165036;28;20262;-71
2022/01/29 00:21:58;;;;;;;11.60;2.80;;;;;;;-1.49;92.23;100673.84;4180020;28;20241;-73
2022/01/29 00:24:25;;;;;;;10.93;2.50;;;;;;;-1.50;92.82;100681.75;4178588;28;21711;-72
2022/01/29 00:26:52;;;;;;;10.30;3.03;;;;;;;-1.53;92.74;100674.03;4181289;28;20788;-72
2022/01/29 00:29:21;;;;;;;10.03;2.37;;;;;;;-1.57;92.85;100686.38;4185754;28;20717;-70
2022/01/29 00:31:48;;;;;;;9.93;2.53;;;;;;;-1.57;93.21;100688.13;4188477;28;20241;-69
2022/01/29 00:34:15;;;;;;;13.33;2.93;;;;;;;-1.60;93.43;100686.47;4184497;28;20237;-71
2022/01/29 00:36:41;;;;;;;10.27;2.50;;;;;;;-1.68;93.50;100685.97;4184076;28;23032;-69
2022/01/29 00:39:08;;;;;;;8.77;2.97;;;;;;;-1.80;94.26;100676.84;4186508;28;20236;-73
2022/01/29 00:41:34;;;;;;;7.07;2.57;;;;;;;-1.74;94.57;100679.19;4167406;28;21020;-71
2022/01/29 00:44:01;;;;;;;11.43;2.70;;;;;;;-1.76;94.57;100673.19;4184166;28;20237;-70
2022/01/29 00:46:28;;;;;;;13.23;3.60;;;;;;;-1.78;94.95;100682.88;4180407;28;21654;-72
2022/01/29 00:48:54;;;;;;;11.27;3.47;;;;;;;-1.76;94.64;100683.63;4175090;28;20589;-72
2022/01/29 00:51:21;;;;;;;9.83;3.60;;;;;;;-1.87;94.97;100674.53;4178575;28;20240;-71
2022/01/29 00:53:48;;;;;;;13.63;4.23;;;;;;;-1.87;95.54;100679.75;4182063;28;20273;-69
2022/01/29 00:56:14;;;;;;;8.17;3.97;;;;;;;-1.82;94.92;100673.47;4182654;28;20237;-71
2022/01/29 00:58:41;;;;;;;13.67;4.50;;;;;;;-1.89;95.73;100668.56;4170050;28;20229;-71
2022/01/29 01:01:07;;;;;;;11.03;4.43;;;;;;;-1.93;96.08;100670.41;4181574;28;20709;-72
2022/01/29 01:03:34;;;;;;;15.93;4.97;;;;;;;-1.88;96.08;100678.06;4184699;28;21782;-72
2022/01/29 01:06:01;;;;;;;11.70;5.23;;;;;;;-1.95;96.29;100673.06;4184230;28;22065;-70
2022/01/29 01:08:27;;;;;;;12.47;5.10;;;;;;;-1.97;96.16;100674.03;4167870;28;20334;-71
2022/01/29 01:10:54;;;;;;;12.23;5.07;;;;;;;-2.01;97.11;100672.47;4176413;28;20240;-70
2022/01/29 01:13:20;;;;;;;13.53;5.40;;;;;;;-1.98;97.29;100659.31;4174210;28;21246;-69
2022/01/29 01:15:47;;;;;;;16.63;5.20;;;;;;;-2.01;97.03;100662.91;4183502;28;21346;-70
2022/01/29 01:18:14;;;;;;;11.03;4.93;;;;;;;-2.03;97.44;100663.88;4172033;28;21304;-69
2022/01/29 01:20:41;;;;;;;13.73;4.60;;;;;;;-2.05;97.75;100657.84;4179952;28;20229;-71
2022/01/29 01:23:07;;;;;;;13.93;5.20;;;;;;;-2.01;97.70;100656.84;4179137;28;21063;-72
2022/01/29 01:25:34;;;;;;;14.47;5.37;;;;;;;-2.04;97.74;100656.94;4177343;28;20244;-70
2022/01/29 01:28:00;;;;;;;18.03;5.60;;;;;;;-2.06;97.74;100648.31;4206737;28;23362;-72
2022/01/29 01:30:27;;;;;;;15.73;5.17;;;;;;;-2.08;98.11;100651.00;4168482;28;20229;-70
2022/01/29 01:32:53;;;;;;;15.27;5.70;;;;;;;-2.05;98.17;100645.66;4173479;28;20295;-72
2022/01/29 01:35:28;;;;;;;15.40;5.50;;;;;;;-2.12;98.45;100637.22;4177539;28;21247;-69
2022/01/29 01:38:00;;;;;;;21.27;5.53;;;;;;;-2.12;98.44;100634.63;4184205;28;20235;-72
2022/01/29 01:40:28;;;;;;;12.80;5.03;;;;;;;-2.13;98.63;100630.31;4178239;28;20306;-70
2022/01/29 01:42:59;;;;;;;16.70;5.60;;;;;;;-2.15;98.57;100637.34;4162896;28;20623;-70
2022/01/29 01:45:29;;;;;;;15.50;6.33;;;;;;;-2.07;98.41;100642.25;4169471;28;20277;-72
2022/01/29 01:47:57;;;;;;;15.97;5.67;;;;;;;-2.14;98.34;100640.81;4179594;28;20221;-72
2022/01/29 01:50:24;;;;;;;17.33;5.90;;;;;;;-2.14;99.07;100639.03;4181572;28;20268;-70
2022/01/29 01:52:51;;;;;;;17.80;6.20;;;;;;;-2.26;99.26;100631.69;4181733;28;20326;-69
2022/01/29 01:55:18;;;;;;;18.13;6.13;;;;;;;-2.32;100.00;100631.91;4161572;28;23057;-70
2022/01/29 01:57:45;;;;;;;15.63;5.40;;;;;;;-2.39;100.00;100633.06;4178349;28;20316;-70
2022/01/29 02:00:12;;;;;;;25.33;7.27;;;;;;;-2.38;100.00;100625.19;4183296;28;20229;-72
2022/01/29 02:02:38;;;;;;;16.73;6.13;;;;;;;-2.33;100.00;100623.25;4181621;28;22219;-68
2022/01/29 02:05:06;;;;;;;16.30;5.63;;;;;;;-2.40;100.00;100626.16;4174307;28;20354;-71
2022/01/29 02:07:33;;;;;;;18.03;5.40;;;;;;;-2.42;100.00;100622.75;4179026;28;20229;-72
2022/01/29 02:10:00;;;;;;;26.37;6.33;;;;;;;-2.46;100.00;100618.56;4170196;28;22168;-70
2022/01/29 02:12:30;;;;;;;17.80;5.70;;;;;;;-2.41;100.00;100614.03;4188040;28;20405;-70
2022/01/29 02:15:01;;;;;;;20.63;6.50;;;;;;;-2.40;100.00;100623.56;4181343;28;20341;-70
2022/01/29 02:17:28;;;;;;;22.67;6.23;;;;;;;-2.44;100.00;100614.16;4160677;28;20237;-70
2022/01/29 02:19:55;;;;;;;17.87;5.80;;;;;;;-2.48;100.00;100620.38;4172908;28;20396;-71
2022/01/29 02:22:22;;;;;;;18.80;6.60;;;;;;;-2.49;100.00;100623.91;4172330;28;20706;-71
2022/01/29 02:24:48;;;;;;;25.33;7.00;;;;;;;-2.49;100.00;100618.69;4168955;28;20454;-70
2022/01/29 02:27:15;;;;;;;20.07;6.47;;;;;;;-2.51;100.00;100621.34;4167855;28;22689;-71
2022/01/29 02:29:44;;;;;;;17.13;6.47;;;;;;;-2.51;100.00;100621.34;4170642;28;20302;-72
2022/01/29 02:32:10;;;;;;;17.17;6.10;;;;;;;-2.53;100.00;100619.69;4177895;28;20234;-71
2022/01/29 02:34:40;;;;;;;20.17;5.70;;;;;;;-2.48;100.00;100618.66;4169373;28;23983;-70
2022/01/29 02:37:07;;;;;;;17.67;5.67;;;;;;;-2.48;100.00;100620.38;4170206;28;20227;-73
2022/01/29 02:39:34;;;;;;;15.43;6.10;;;;;;;-2.58;100.00;100617.28;4201905;28;20239;-70
2022/01/29 02:42:02;;;;;;;16.30;6.73;;;;;;;-2.55;100.00;100622.38;4171817;28;20331;-71
2022/01/29 02:44:30;;;;;;;17.60;5.77;;;;;;;-2.57;100.00;100632.84;4160782;28;20237;-72
2022/01/29 02:47:13;;;;;;;15.47;6.53;;;;;;;-2.51;100.00;100628.31;4169448;28;20276;-69
2022/01/29 02:49:40;;;;;;;12.03;5.87;;;;;;;-2.56;100.00;100631.09;4174347;28;20238;-70
2022/01/29 02:52:06;;;;;;;16.13;6.50;;;;;;;-2.59;100.00;100629.44;4179175;28;21692;-71
2022/01/29 02:54:34;;;;;;;18.27;6.27;;;;;;;-2.55;100.00;100630.19;4168840;28;20297;-71
2022/01/29 02:57:01;;;;;;;15.07;6.10;;;;;;;-2.53;100.00;100630.97;4176423;28;20229;-69
2022/01/29 02:59:27;;;;;;;17.00;6.70;;;;;;;-2.58;100.00;100625.94;4172903;28;23098;-71
2022/01/29 03:01:54;;;;;;;17.50;6.57;;;;;;;-2.55;100.00;100623.22;4168625;28;21222;-69
2022/01/29 03:04:21;;;;;;;17.73;6.40;;;;;;;-2.58;100.00;100625.94;4173927;28;20517;-72
2022/01/29 03:06:47;;;;;;;17.93;6.10;;;;;;;-2.62;100.00;100621.75;4176856;28;21397;-71
2022/01/29 03:09:14;;;;;;;17.77;6.57;;;;;;;-2.60;100.00;100629.50;4168715;28;20229;-71
2022/01/29 03:11:41;;;;;;;25.20;7.90;;;;;;;-2.70;100.00;100621.19;4193025;28;25100;-71
2022/01/29 03:14:08;;;;;;;16.57;5.90;;;;;;;-2.64;100.00;100626.16;4176705;28;20638;-71
2022/01/29 03:16:34;;;;;;;28.73;6.27;;;;;;;-2.57;100.00;100627.63;4168517;28;22229;-73
2022/01/29 03:19:01;;;;;;;19.87;5.67;;;;;;;-2.61;100.00;100626.06;4170744;28;20250;-70
2022/01/29 03:21:28;;;;;;;16.60;4.87;;;;;;;-2.56;100.00;100638.91;4173067;28;23045;-72
2022/01/29 03:23:55;;;;;;;16.20;4.70;;;;;;;-2.61;100.00;100633.03;4178248;28;20720;-70
2022/01/29 03:26:21;;;;;;;9.93;4.47;;;;;;;-2.64;100.00;100620.97;4175229;28;20234;-70
2022/01/29 03:28:48;;;;;;;17.73;5.43;;;;;;;-2.65;100.00;100619.25;4185509;28;21658;-70
2022/01/29 03:31:14;;;;;;;20.23;4.77;;;;;;;-2.66;100.00;100614.94;4177253;28;20370;-71
2022/01/29 03:33:41;;;;;;;17.10;5.33;;;;;;;-2.72;100.00;100602.16;4176350;28;20233;-72
2022/01/29 03:36:08;;;;;;;13.83;4.97;;;;;;;-2.71;100.00;100614.28;4160889;28;20513;-70
2022/01/29 03:38:39;;;;;;;16.07;5.10;;;;;;;-2.69;100.00;100612.47;4177557;28;21987;-70
2022/01/29 03:41:07;;;;;;;13.60;4.67;;;;;;;-2.63;100.00;100621.81;4169517;28;20237;-70
2022/01/29 03:43:41;;;;;;;14.83;5.27;;;;;;;-2.66;100.00;100617.56;4177260;28;21869;-70
2022/01/29 03:46:07;;;;;;;13.80;5.07;;;;;;;-2.67;100.00;100620.22;4166515;28;20232;-70
2022/01/29 03:48:34;;;;;;;14.83;4.90;;;;;;;-2.63;100.00;100620.03;4180738;28;20231;-72
2022/01/29 03:51:01;;;;;;;13.83;4.87;;;;;;;-2.69;100.00;100628.09;4176409;28;20241;-70
2022/01/29 03:53:28;;;;;;;16.10;5.23;;;;;;;-2.66;100.00;100627.13;4177183;28;20248;-71
2022/01/29 03:55:54;;;;;;;16.63;4.70;;;;;;;-2.69;100.00;100630.72;4183139;28;21959;-70
2022/01/29 03:58:21;;;;;;;18.97;5.03;;;;;;;-2.67;100.00;100628.91;4178172;28;20391;-72
2022/01/29 04:00:48;;;;;;;12.63;4.40;;;;;;;-2.61;100.00;100631.25;4177995;28;21615;-71
2022/01/29 04:03:14;;;;;;;15.17;4.47;;;;;;;-2.74;100.00;100627.38;4156953;28;20495;-71
2022/01/29 04:05:41;;;;;;;11.87;4.80;;;;;;;-2.77;100.00;100623.16;4180841;28;20249;-71
2022/01/29 04:08:14;;;;;;;15.07;4.27;;;;;;;-2.75;100.00;100628.31;4177247;28;20314;-72
2022/01/29 04:10:41;;;;;;;17.67;4.17;;;;;;;-2.77;100.00;100630.13;4171114;28;20237;-71
2022/01/29 04:13:11;;;;;;;15.03;4.53;;;;;;;-2.70;100.00;100618.56;4176258;28;20242;-74
2022/01/29 04:15:38;;;;;;;15.60;5.23;;;;;;;-2.78;100.00;100625.81;4171647;28;21739;-72
2022/01/29 04:18:05;;;;;;;17.30;4.90;;;;;;;-2.73;100.00;100626.50;4178399;28;21261;-73
2022/01/29 04:20:31;;;;;;;16.17;4.60;;;;;;;-2.79;100.00;100622.38;4180102;28;20273;-74
2022/01/29 04:22:58;;;;;;;13.17;4.30;;;;;;;-2.81;100.00;100626.78;4195896;28;20231;-72
2022/01/29 04:25:25;;;;;;;13.67;4.20;;;;;;;-2.74;100.00;100619.56;4188828;28;20318;-72
2022/01/29 04:27:52;;;;;;;17.13;4.40;;;;;;;-2.75;100.00;100610.09;4176002;28;21689;-73
2022/01/29 04:30:30;;;;;;;13.20;4.10;;;;;;;-2.81;100.00;100613.78;4172983;28;21325;-74
2022/01/29 04:33:02;;;;;;;18.43;5.27;;;;;;;-2.76;100.00;100611.00;4178927;28;20338;-72
2022/01/29 04:35:30;;;;;;;16.03;4.30;;;;;;;-2.72;100.00;100607.34;4183801;28;23646;-72
2022/01/29 04:37:56;;;;;;;15.80;5.27;;;;;;;-2.72;100.00;100606.50;4175882;28;20345;-72
2022/01/29 04:40:23;;;;;;;18.03;4.33;;;;;;;-2.75;100.00;100602.28;4160717;28;20267;-71
2022/01/29 04:42:49;;;;;;;18.93;5.47;;;;;;;-2.82;100.00;100600.78;4175777;28;20229;-72
2022/01/29 04:45:16;;;;;;;17.00;4.50;;;;;;;-2.84;100.00;100608.66;4177837;28;20248;-71
2022/01/29 04:47:42;;;;;;;17.93;5.03;;;;;;;-2.86;100.00;100599.19;4174887;28;21901;-71
2022/01/29 04:50:09;;;;;;;16.40;4.60;;;;;;;-2.86;100.00;100602.66;4178354;28;20320;-72
2022/01/29 04:52:36;;;;;;;23.20;4.87;;;;;;;-2.86;100.00;100605.25;4174611;28;20238;-72
2022/01/29 04:55:03;;;;;;;19.47;5.83;;;;;;;-2.91;100.00;100593.31;4173442;28;21636;-75
2022/01/29 04:57:30;;;;;;;15.40;5.33;;;;;;;-2.86;100.00;100594.00;4177201;28;21692;-72
2022/01/29 04:59:56;;;;;;;18.23;5.23;;;;;;;-2.84;100.00;100593.03;4173508;28;20229;-72
2022/01/29 05:02:23;;;;;;;23.20;6.10;;;;;;;-2.87;100.00;100581.88;4178949;28;20335;-71
2022/01/29 05:04:50;;;;;;;19.13;5.43;;;;;;;-2.82;100.00;100590.38;4177485;28;21817;-71
2022/01/29 05:07:16;;;;;;;12.33;5.27;;;;;;;-2.84;100.00;100576.56;4170159;28;20707;-71
2022/01/29 05:09:43;;;;;;;13.43;5.10;;;;;;;-2.82;100.00;100574.75;4167769;28;22655;-58
2022/01/29 05:12:12;;;;;;;13.00;4.80;;;;;;;-2.82;100.00;100567.78;4179282;28;20309;-78
2022/01/29 05:14:53;;;;;;;16.03;4.77;;;;;;;-2.78;100.00;100573.75;4178009;28;20248;-79
2022/01/29 05:28:02;;;;;;;16.83;5.17;;;;;;;-2.79;100.00;100549.47;4190948;28;20253;-78
2022/01/29 05:30:29;;;;;;;19.73;4.90;;;;;;;-2.80;100.00;100546.91;4169910;28;20311;-76
2022/01/29 05:32:55;;;;;;;14.10;5.20;;;;;;;-2.77;100.00;100554.59;4167819;28;20249;-75
2022/01/29 05:35:22;;;;;;;15.90;5.83;;;;;;;-2.82;100.00;100554.78;4159775;28;20225;-78
2022/01/29 05:37:51;;;;;;;16.17;4.93;;;;;;;-2.81;100.00;100548.66;4177798;28;23902;-76
2022/01/29 05:40:17;;;;;;;19.47;5.17;;;;;;;-2.81;100.00;100551.28;4177536;28;20244;-75
2022/01/29 05:42:44;;;;;;;19.27;5.63;;;;;;;-2.78;100.00;100550.31;4174882;28;22868;-79
2022/01/29 05:45:11;;;;;;;14.20;5.30;;;;;;;-2.77;100.00;100550.22;4176230;28;20288;-76
2022/01/29 05:47:38;;;;;;;15.77;5.17;;;;;;;-2.85;100.00;100548.84;4172787;28;22621;-76
2022/01/29 05:50:05;;;;;;;15.23;5.20;;;;;;;-2.87;100.00;100545.44;4177675;28;20233;-77
2022/01/29 05:52:32;;;;;;;19.23;6.43;;;;;;;-2.86;100.00;100547.13;4164190;28;21219;-79
2022/01/29 05:55:03;;;;;;;21.40;5.93;;;;;;;-2.88;100.00;100542.00;4167580;28;20734;-77
2022/01/29 05:57:30;;;;;;;15.80;5.57;;;;;;;-2.84;100.00;100540.09;4176221;28;25395;-77
2022/01/29 05:59:56;;;;;;;13.90;4.53;;;;;;;-2.84;100.00;100540.94;4159197;28;20251;-78
2022/01/29 06:02:23;;;;;;;19.67;5.50;;;;;;;-2.87;100.00;100540.22;4176966;28;20397;-76
2022/01/29 06:04:50;;;;;;;20.10;6.60;;;;;;;-2.86;100.00;100541.91;4179122;28;20246;-76
2022/01/29 06:07:16;;;;;;;15.73;5.33;;;;;;;-2.90;100.00;100545.53;4175586;28;20236;-76
2022/01/29 06:09:45;;;;;;;18.33;6.20;;;;;;;-2.89;100.00;100537.69;4180979;28;20229;-75
2022/01/29 06:12:11;;;;;;;13.50;5.63;;;;;;;-2.86;100.00;100541.91;4172287;28;22182;-73
2022/01/29 06:14:38;;;;;;;17.43;6.10;;;;;;;-2.93;100.00;100535.25;4174841;28;20272;-75
2022/01/29 06:17:04;;;;;;;18.03;6.23;;;;;;;-2.94;100.00;100546.56;4173146;28;20241;-76
2022/01/29 06:19:31;;;;;;;16.23;6.87;;;;;;;-3.00;100.00;100538.09;4172614;28;20783;-75
2022/01/29 06:21:58;;;;;;;22.13;6.63;;;;;;;-2.98;100.00;100538.84;4180320;28;20237;-75
2022/01/29 06:24:24;;;;;;;18.23;6.70;;;;;;;-2.98;100.00;100527.59;4168373;28;20238;-76
2022/01/29 06:26:51;;;;;;;16.57;6.93;;;;;;;-2.98;100.00;100525.84;4178714;28;20231;-74
2022/01/29 06:29:17;;;;;;;19.37;7.03;;;;;;;-2.95;100.00;100537.06;4189040;28;20260;-74
2022/01/29 06:31:48;;;;;;;24.27;7.77;;;;;;;-2.93;100.00;100540.44;4237736;28;20563;-74
2022/01/29 06:34:15;;;;;;;26.73;8.13;;;;;;;-2.97;100.00;100539.72;4192546;28;20270;-75
2022/01/29 06:36:41;;;;;;;21.13;6.83;;;;;;;-2.89;100.00;100544.66;4180790;28;20582;-71
2022/01/29 06:39:08;;;;;;;18.77;6.13;;;;;;;-2.92;100.00;100536.97;4160543;28;21647;-72
2022/01/29 06:41:34;;;;;;;21.60;6.70;;;;;;;-2.93;100.00;100551.69;4179677;28;20260;-73
2022/01/29 06:44:01;;;;;;;23.73;7.70;;;;;;;-2.93;100.00;100550.88;4180294;28;20303;-75
2022/01/29 06:46:28;;;;;;;25.03;6.53;;;;;;;-2.94;100.00;100549.19;4164724;28;20296;-71
2022/01/29 06:48:55;;;;;;;22.13;7.10;;;;;;;-2.95;100.00;100558.75;4172548;28;20246;-76
2022/01/29 06:51:21;;;;;;;20.30;7.40;;;;;;;-2.92;100.00;100560.38;4175064;28;21227;-75
2022/01/29 06:53:48;;;;;;;21.17;7.47;;;;;;;-2.88;100.00;100548.94;4171354;28;20236;-75
2022/01/29 06:56:15;;;;;;;26.63;7.30;;;;;;;-2.86;100.00;100550.56;4176215;28;21253;-75
2022/01/29 06:58:41;;;;;;;17.50;6.90;;;;;;;-2.83;100.00;100547.03;4173640;28;20232;-73
2022/01/29 07:01:28;;;;;;;26.23;7.90;;;;;;;-2.84;100.00;100535.75;4181657;28;20406;-75
2022/01/29 07:03:55;;;;;;;20.43;7.03;;;;;;;-2.83;100.00;100534.00;4168423;28;20986;-73
2022/01/29 07:06:21;;;;;;;20.43;7.57;;;;;;;-2.75;100.00;100529.34;4171656;28;20366;-74
2022/01/29 07:08:49;;;;;;;28.50;8.53;;;;;;;-2.77;100.00;100531.16;4176239;28;24766;-76
2022/01/29 07:11:19;;;;;;;20.27;7.13;;;;;;;-2.71;100.00;100515.31;4172428;28;21573;-76
2022/01/29 07:13:46;;;;;;;20.50;8.17;;;;;;;-2.69;100.00;100518.72;4181186;28;21257;-79
2022/01/29 07:16:13;;;;;;;22.13;8.23;;;;;;;-2.59;100.00;100514.00;4181719;28;21669;-76
2022/01/29 07:18:39;;;;;;;25.87;8.30;;;;;;;-2.51;100.00;100500.66;4176206;28;20237;-76
2022/01/29 07:21:06;;;;;;;24.70;9.03;;;;;;;-2.49;100.00;100498.84;4161521;28;20330;-77
2022/01/29 07:23:33;;;;;;;25.60;8.43;;;;;;;-2.44;100.00;100487.31;4181250;28;21769;-77
2022/01/29 07:26:00;;;;;;;17.10;7.37;;;;;;;-2.39;100.00;100489.75;4193243;28;25180;-77
2022/01/29 07:28:27;;;;;;;19.43;7.10;;;;;;;-2.35;100.00;100488.72;4177120;28;21612;-77
2022/01/29 07:30:53;;;;;;;25.53;7.00;;;;;;;-2.29;100.00;100491.09;4183837;28;22740;-75
2022/01/29 07:33:20;;;;;;;16.70;6.07;;;;;;;-2.30;100.00;100483.31;4176818;28;21290;-78
2022/01/29 07:35:47;;;;;;;19.33;6.13;;;;;;;-2.30;100.00;100478.94;4188985;28;20247;-76
2022/01/29 07:38:14;;;;;;;16.17;7.63;;;;;;;-2.29;100.00;100477.22;4192659;28;20392;-76
2022/01/29 07:40:41;;;;;;;18.93;7.83;;;;;;;-2.24;100.00;100476.09;4206646;28;22257;-76
2022/01/29 07:43:07;;;;;;;22.07;7.50;;;;;;;-2.24;100.00;100473.50;4192960;28;21637;-68
2022/01/29 07:45:34;;;;;;;25.43;6.47;;;;;;;-2.23;100.00;100469.97;4171506;28;20443;-73
2022/01/29 07:48:01;;;;;;;24.43;7.50;;;;;;;-2.21;100.00;100456.88;4175415;28;20234;-71
2022/01/29 07:50:27;;;;;;;22.77;6.00;;;;;;;-2.22;100.00;100461.25;4179753;28;20280;-71
2022/01/29 07:52:54;;;;;;;29.07;6.70;;;;;;;-2.14;100.00;100463.53;4184216;28;21483;-74
2022/01/29 07:55:21;;;;;;;21.70;6.03;;;;;;;-2.19;100.00;100458.50;4172234;28;20244;-72
2022/01/29 07:57:48;;;;;;;25.90;6.97;;;;;;;-2.15;100.00;100456.63;4181767;28;20259;-74
2022/01/29 08:00:15;;;;;;;23.37;7.27;;;;;;;-2.10;100.00;100448.63;4200091;28;20233;-72
2022/01/29 08:02:41;;;;;;;20.33;7.33;;;;;;;-2.11;100.00;100442.53;4201180;28;20510;-72
2022/01/29 08:05:08;;;;;;;21.13;6.40;;;;;;;-2.02;100.00;100436.94;4196704;28;20246;-74
2022/01/29 08:07:35;;;;;;;19.90;6.57;;;;;;;-1.92;100.00;100433.03;4193296;28;20683;-72
2022/01/29 08:10:03;;;;;;;25.63;6.57;;;;;;;-1.83;100.00;100430.94;4173617;28;21913;-71
2022/01/29 08:12:29;;;;;;;18.73;5.93;;;;;;;-1.81;100.00;100432.56;4167905;28;20238;-68
2022/01/29 08:14:56;;;;;;;19.47;6.67;;;;;;;-1.76;100.00;100428.00;4186072;28;20432;-72
2022/01/29 08:17:23;;;;;;;23.67;6.73;;;;;;;-1.72;100.00;100429.56;4164755;28;20270;-70
2022/01/29 08:19:50;;;;;;;19.97;6.70;;;;;;;-1.61;100.00;100423.88;4182108;28;20284;-69
2022/01/29 08:22:17;;;;;;;25.27;8.60;;;;;;;-1.37;100.00;100424.53;4170175;28;20257;-71
2022/01/29 08:24:44;;;;;;;18.03;6.13;;;;;;;-1.28;100.00;100423.28;4179257;28;20401;-71
2022/01/29 08:27:11;;;;;;;24.40;6.87;;;;;;;-1.29;100.00;100416.34;4199049;28;21586;-72
2022/01/29 08:29:38;;;;;;;22.30;7.43;;;;;;;-1.41;100.00;100417.75;4195660;28;20628;-72
2022/01/29 08:32:05;;;;;;;23.07;6.70;;;;;;;-1.18;100.00;100421.09;4191384;28;20249;-74
2022/01/29 08:34:32;;;;;;;19.33;6.57;;;;;;;-1.16;99.99;100411.44;4192273;28;21901;-68
2022/01/29 08:37:02;;;;;;;22.63;6.53;;;;;;;-1.15;100.00;100407.88;4233957;28;20230;-75
2022/01/29 08:39:29;;;;;;;26.97;6.33;;;;;;;-1.03;100.00;100393.41;4285476;28;20708;-73
2022/01/29 08:41:57;;;;;;;21.83;6.20;;;;;;;-0.60;99.25;100402.66;4227015;28;20307;-70
2022/01/29 08:44:24;;;;;;;23.43;6.53;;;;;;;-0.13;96.74;100393.38;4204201;28;20295;-74
2022/01/29 08:46:51;;;;;;;18.87;6.03;;;;;;;1.01;91.66;100399.53;4277151;28;20305;-49
2022/01/29 08:49:18;;;;;;;19.27;6.50;;;;;;;2.91;82.92;100402.34;4199039;28;20233;-54
2022/01/29 08:51:44;;;;;;;37.63;7.27;;;;;;;4.51;73.59;100392.56;4266187;28;20233;-71
2022/01/29 08:54:11;;;;;;;26.63;6.37;;;;;;;5.81;65.89;100390.19;4208221;28;21893;-69
2022/01/29 08:56:41;;;;;;;19.77;6.00;;;;;;;6.23;61.80;100395.84;4198737;28;20242;-69
2022/01/29 08:59:07;;;;;;;23.07;6.60;;;;;;;7.06;58.67;100410.47;4206953;28;20262;-70
2022/01/29 09:01:34;;;;;;;17.43;6.20;;;;;;;8.38;53.69;100409.28;4220806;28;22207;-68
2022/01/29 09:04:01;;;;;;;19.30;6.33;;;;;;;7.21;55.91;100408.44;4213416;28;20312;-70
2022/01/29 09:06:28;;;;;;;19.97;7.27;;;;;;;9.38;49.74;100419.19;4231408;28;21120;-79
2022/01/29 09:08:55;;;;;;;20.20;6.23;;;;;;;7.80;53.18;100420.38;4203180;28;20242;-77
2022/01/29 09:11:22;;;;;;;21.57;7.47;;;;;;;7.35;54.84;100407.28;4239760;28;20701;-71
2022/01/29 09:13:49;;;;;;;18.87;7.13;;;;;;;7.01;57.79;100398.59;4221592;28;22246;-71
2022/01/29 09:16:16;;;;;;;18.43;7.07;;;;;;;7.02;55.65;100398.47;4201617;28;20237;-72
2022/01/29 09:18:43;;;;;;;25.83;6.97;;;;;;;5.68;61.69;100392.06;4187636;28;20714;-69
2022/01/29 09:21:10;;;;;;;22.70;7.63;;;;;;;5.15;63.72;100381.03;4183919;28;22640;-67
2022/01/29 09:23:37;;;;;;;26.40;8.27;;;;;;;5.41;63.17;100381.78;4205628;28;20441;-73
2022/01/29 09:26:05;;;;;;;30.10;8.23;;;;;;;3.40;71.57;100372.06;4180763;28;25552;-68
2022/01/29 09:28:31;;;;;;;32.37;8.17;;;;;;;3.72;72.08;100372.53;4205127;28;21645;-72
2022/01/29 09:30:58;;;;;;;31.97;8.70;;;;;;;3.30;73.91;100364.75;4201029;28;20466;-70
2022/01/29 09:33:25;;;;;;;30.37;8.67;;;;;;;2.81;76.47;100365.28;4200108;28;20244;-69
2022/01/29 09:35:52;;;;;;;35.13;9.93;;;;;;;2.38;79.18;100353.97;4184501;28;23150;-69
2022/01/29 09:38:18;;;;;;;33.47;9.57;;;;;;;2.27;80.62;100357.25;4207920;28;22297;-72
2022/01/29 09:40:45;;;;;;;35.73;7.77;;;;;;;3.53;76.28;100343.97;4213573;28;20315;-71
2022/01/29 09:43:12;;;;;;;27.10;7.73;;;;;;;4.41;71.47;100333.56;4184633;28;20659;-70
2022/01/29 09:45:39;;;;;;;25.77;8.20;;;;;;;4.15;71.07;100333.59;4189219;28;20235;-69
2022/01/29 09:48:06;;;;;;;38.80;9.13;;;;;;;4.10;71.59;100322.56;4194222;28;20508;-69
2022/01/29 09:50:40;;;;;;;35.90;10.57;;;;;;;4.18;72.05;100309.69;4175256;28;20241;-69
2022/01/29 09:53:07;;;;;;;34.03;10.40;;;;;;;3.42;73.41;100302.63;4193901;28;20242;-72
2022/01/29 09:55:34;;;;;;;34.20;9.33;;;;;;;3.41;75.06;100308.81;4186250;28;20241;-69
2022/01/29 09:58:01;;;;;;;27.27;8.00;;;;;;;3.73;74.06;100303.19;4186995;28;21941;-70
2022/01/29 10:00:28;;;;;;;32.20;8.73;;;;;;;3.49;74.58;100293.38;4211798;28;20335;-69
2022/01/29 10:03:10;;;;;;;32.00;8.93;;;;;;;3.22;75.54;100287.31;4203204;28;20249;-69
2022/01/29 10:05:41;;;;;;;32.70;8.20;;;;;;;3.48;75.49;100296.94;4213952;28;20227;-70
2022/01/29 10:08:09;;;;;;;34.03;8.87;;;;;;;3.81;73.60;100283.25;4243923;28;21014;-70
2022/01/29 10:10:41;;;;;;;24.83;8.50;;;;;;;3.56;75.17;100267.50;4247947;28;20657;-72
2022/01/29 10:13:25;;;;;;;41.00;9.70;;;;;;;3.80;74.12;100264.97;4179431;28;20271;-71
2022/01/29 10:16:13;;;;;;;29.00;8.40;;;;;;;3.23;75.93;100258.28;4177319;28;26337;-68
2022/01/29 10:18:42;;;;;;;35.30;9.30;;;;;;;2.99;77.40;100252.03;4217647;28;20231;-73
2022/01/29 10:21:20;;;;;;;26.57;8.57;;;;;;;2.75;79.05;100239.53;4189236;28;22672;-73
2022/01/29 10:23:50;;;;;;;30.07;8.87;;;;;;;2.66;79.89;100238.34;4180963;28;21174;-73
2022/01/29 10:26:38;;;;;;;28.30;9.40;;;;;;;2.58;80.31;100217.00;4171073;28;20257;-69
2022/01/29 10:29:07;;;;;;;38.90;8.93;;;;;;;2.56;80.57;100205.75;4211259;28;21485;-73
2022/01/29 10:31:45;;;;;;;33.63;8.80;;;;;;;2.49;81.06;100202.66;4185591;28;20296;-73
2022/01/29 10:34:16;;;;;;;37.30;8.17;;;;;;;2.56;80.06;100200.50;4179135;28;20432;-67
2022/01/29 10:36:43;;;;;;;38.33;8.43;;;;;;;2.56;80.42;100197.88;4192797;28;20313;-71
2022/01/29 10:39:09;;;;;;;34.33;8.53;;;;;;;2.51;80.84;100187.66;4195604;28;20256;-76
2022/01/29 10:41:36;;;;;;;32.87;7.67;;;;;;;2.66;82.49;100184.97;4169817;28;20253;-70
2022/01/29 10:44:12;;;;;;;33.63;8.33;;;;;;;2.63;81.04;100180.75;4180107;28;20929;-71
2022/01/29 10:46:41;;;;;;;35.00;8.03;;;;;;;2.54;81.35;100173.47;4185700;28;20314;-72
2022/01/29 10:49:09;;;;;;;35.50;7.93;;;;;;;2.61;81.11;100164.25;4197266;28;20281;-70
2022/01/29 10:51:36;;;;;;;32.70;7.90;;;;;;;2.67;80.53;100160.38;4174195;28;20238;-69
2022/01/29 10:54:19;;;;;;;28.40;7.80;;;;;;;2.73;80.56;100152.94;4203539;28;21325;-70
2022/01/29 10:57:03;;;;;;;34.97;7.90;;;;;;;2.72;80.37;100145.16;4209139;28;20529;-74
2022/01/29 10:59:32;;;;;;;36.77;8.07;;;;;;;2.80;79.76;100129.72;4176293;28;20380;-73
2022/01/29 11:02:02;;;;;;;39.90;8.30;;;;;;;2.74;79.68;100122.28;4224881;28;20307;-73
2022/01/29 11:04:30;;;;;;;35.00;7.60;;;;;;;2.63;80.53;100130.00;4195045;28;21715;-72
2022/01/29 11:07:01;;;;;;;34.43;8.50;;;;;;;2.48;81.39;100137.97;4188238;28;21257;-71
2022/01/29 11:09:29;;;;;;;33.87;7.73;;;;;;;2.23;83.04;100130.00;4178396;28;20269;-72
2022/01/29 11:12:02;;;;;;;36.23;8.63;;;;;;;2.16;83.11;100121.69;4165776;28;20325;-69
2022/01/29 11:14:30;;;;;;;43.07;8.90;;;;;;;2.04;83.75;100112.81;4179078;28;21358;-72
2022/01/29 11:16:58;;;;;;;44.70;9.40;;;;;;;2.00;84.48;100113.94;4182631;28;20248;-72
2022/01/29 11:19:26;;;;;;;42.63;9.60;;;;;;;1.96;84.91;100109.81;4180509;28;20440;-71
2022/01/29 11:21:55;;;;;;;36.40;8.73;;;;;;;1.78;85.24;100106.59;4172213;28;21449;-70
2022/01/29 11:24:25;;;;;;;36.67;9.10;;;;;;;1.76;85.65;100105.84;4171472;28;20233;-71
2022/01/29 11:26:52;;;;;;;37.67;8.63;;;;;;;1.68;86.25;100093.19;4188559;28;20237;-73
2022/01/29 11:29:27;;;;;;;36.43;9.10;;;;;;;1.69;86.88;100080.97;4186619;28;22776;-72